Adams City, Colorado
Current Conditions -  °F | °C
As of 3:53 AM on Monday 22 Dec 2014 (Local Time) from KDEN Reporting Station
Scattered Clouds Scattered Clouds  
Wind Chill: 33°   Ceiling: Unl
Heat Index: 33°   Visibility: 10mi
Dew Point: 27°   Wind: 3mph
Humidity: 78%   Direction: 320°NW
Pressure: 29.72"   Gusts: NA
Location:  39.8641°N, 104.821°W
Report Text: KDEN 221053Z 32003KT 10SM FEW070 FEW095 SCT110 01/M03 A2972 RMK AO2 SLP047 T00061028 $
Loading
Personal Weather Stations






























Interactive Weather Map New forecast layout! Learn more

10-Day Weather Forecast

Advertisements
Track Severe Weather on mobile